createdAt,value
2023-03-24T00:01:24.767Z,99.60
2023-03-24T00:03:51.373Z,99.40
2023-03-24T00:06:18.027Z,99.50
2023-03-24T00:08:44.577Z,99.10
2023-03-24T00:11:11.138Z,99.20
2023-03-24T00:13:37.678Z,99.10
2023-03-24T00:16:04.239Z,99.10
2023-03-24T00:18:30.846Z,99.50
2023-03-24T00:20:57.397Z,99.50
2023-03-24T00:23:24.038Z,99.60
2023-03-24T00:25:50.582Z,99.60
2023-03-24T00:28:17.203Z,99.50
2023-03-24T00:30:43.948Z,99.70
2023-03-24T00:33:10.644Z,99.60
2023-03-24T00:35:37.241Z,99.90
2023-03-24T00:38:03.860Z,99.90
2023-03-24T00:40:30.406Z,99.90
2023-03-24T00:42:56.980Z,99.90
2023-03-24T00:45:23.840Z,99.90
2023-03-24T00:47:50.709Z,99.90
2023-03-24T00:50:17.372Z,99.90
2023-03-24T00:52:43.998Z,99.90
2023-03-24T00:55:10.627Z,99.90
2023-03-24T00:57:37.239Z,99.90
2023-03-24T01:00:03.783Z,99.90
2023-03-24T01:02:30.431Z,99.90
2023-03-24T01:04:57.044Z,99.90
2023-03-24T01:07:23.601Z,99.90
2023-03-24T01:09:50.259Z,99.90
2023-03-24T01:12:16.851Z,99.90
2023-03-24T01:14:43.396Z,99.90
2023-03-24T01:17:09.989Z,99.90
2023-03-24T01:19:36.568Z,99.90
2023-03-24T01:22:03.098Z,99.90
2023-03-24T01:24:29.713Z,99.90
2023-03-24T01:26:56.296Z,99.90
2023-03-24T01:29:22.897Z,99.90
2023-03-24T01:31:49.539Z,99.90
2023-03-24T01:34:16.178Z,99.90
2023-03-24T01:36:42.744Z,99.90
2023-03-24T01:39:09.979Z,99.90
2023-03-24T01:41:36.562Z,99.90
2023-03-24T01:46:47.227Z,99.90
2023-03-24T01:49:13.787Z,99.90
2023-03-24T01:51:40.385Z,99.90
2023-03-24T01:54:06.938Z,99.90
2023-03-24T01:56:33.671Z,99.90
2023-03-24T01:59:00.262Z,99.90
2023-03-24T02:01:26.867Z,99.90
2023-03-24T02:03:53.504Z,99.90
2023-03-24T02:06:20.189Z,99.90
2023-03-24T02:08:46.911Z,99.90
2023-03-24T02:11:13.516Z,99.90
2023-03-24T02:13:40.065Z,99.90
2023-03-24T02:16:06.736Z,99.90
2023-03-24T02:18:33.398Z,99.90
2023-03-24T02:21:00.015Z,99.90
2023-03-24T02:23:26.613Z,99.90
2023-03-24T02:25:53.210Z,99.90
2023-03-24T02:28:19.761Z,99.90
2023-03-24T02:30:46.472Z,99.90
2023-03-24T02:33:13.210Z,99.90
2023-03-24T02:35:39.816Z,99.90
2023-03-24T02:38:06.479Z,99.90
2023-03-24T02:40:33.067Z,99.90
2023-03-24T02:42:59.690Z,99.90
2023-03-24T02:45:26.238Z,99.90
2023-03-24T02:47:52.839Z,99.90
2023-03-24T02:50:19.408Z,99.90
2023-03-24T02:52:45.992Z,99.90
2023-03-24T02:55:12.580Z,99.90
2023-03-24T02:57:39.164Z,99.90
2023-03-24T03:00:05.724Z,99.90
2023-03-24T03:02:32.338Z,99.90
2023-03-24T03:04:58.974Z,99.90
2023-03-24T03:07:26.700Z,99.90
2023-03-24T03:09:53.300Z,99.90
2023-03-24T03:12:19.922Z,99.90
2023-03-24T03:14:46.575Z,99.90
2023-03-24T03:17:13.165Z,99.90
2023-03-24T03:19:39.726Z,99.90
2023-03-24T03:22:06.341Z,99.90
2023-03-24T03:24:32.934Z,99.90
2023-03-24T03:26:59.660Z,99.90
2023-03-24T03:29:26.217Z,99.90
2023-03-24T03:31:52.846Z,99.90
2023-03-24T03:34:21.478Z,99.90
2023-03-24T03:36:48.092Z,99.90
2023-03-24T03:39:14.737Z,99.90
2023-03-24T03:41:41.277Z,99.90
2023-03-24T03:44:07.865Z,99.90
2023-03-24T03:46:34.565Z,99.90
2023-03-24T03:49:01.224Z,99.90
2023-03-24T03:51:27.882Z,99.90
2023-03-24T03:53:54.439Z,99.90
2023-03-24T03:56:21.008Z,99.90
2023-03-24T03:58:47.593Z,99.90
2023-03-24T04:01:14.213Z,99.90
2023-03-24T04:03:40.965Z,99.90
2023-03-24T04:06:07.641Z,99.90
2023-03-24T04:08:34.275Z,99.90
2023-03-24T04:11:00.829Z,99.90
2023-03-24T04:13:27.375Z,99.90
2023-03-24T04:15:53.952Z,99.90
2023-03-24T04:18:20.556Z,99.90
2023-03-24T04:20:47.237Z,99.90
2023-03-24T04:23:14.476Z,99.90
2023-03-24T04:25:41.259Z,99.90
2023-03-24T04:28:07.817Z,99.90
2023-03-24T04:30:34.369Z,99.90
2023-03-24T04:33:00.968Z,99.90
2023-03-24T04:35:27.526Z,99.90
2023-03-24T04:37:54.114Z,99.90
2023-03-24T04:40:20.722Z,99.90
2023-03-24T04:42:47.348Z,99.90
2023-03-24T04:45:13.912Z,99.90
2023-03-24T04:47:40.528Z,99.90
2023-03-24T04:50:07.102Z,99.90
2023-03-24T04:52:33.691Z,99.90
2023-03-24T04:55:00.269Z,99.90
2023-03-24T04:57:26.836Z,99.90
2023-03-24T04:59:53.439Z,99.90
2023-03-24T05:02:21.683Z,99.90
2023-03-24T05:04:48.502Z,99.90
2023-03-24T05:07:15.077Z,99.90
2023-03-24T05:09:41.686Z,99.90
2023-03-24T05:12:08.253Z,99.90
2023-03-24T05:14:34.865Z,99.90
2023-03-24T05:17:01.406Z,99.90
2023-03-24T05:19:28.031Z,99.90
2023-03-24T05:21:54.602Z,99.90
2023-03-24T05:24:21.141Z,99.90
2023-03-24T05:26:47.741Z,99.90
2023-03-24T05:29:14.294Z,99.90
2023-03-24T05:31:40.842Z,99.90
2023-03-24T05:34:07.427Z,99.90
2023-03-24T05:36:34.265Z,99.90
2023-03-24T05:39:00.857Z,99.90
2023-03-24T05:41:27.397Z,99.90
2023-03-24T05:43:54.079Z,99.90
2023-03-24T05:46:20.640Z,99.90
2023-03-24T05:48:47.356Z,99.90
2023-03-24T05:51:13.994Z,99.90
2023-03-24T05:53:40.567Z,99.90
2023-03-24T05:56:07.187Z,99.90
2023-03-24T05:58:33.766Z,99.90
2023-03-24T06:01:00.359Z,99.90
2023-03-24T06:03:27.072Z,99.90
2023-03-24T06:05:53.697Z,99.90
2023-03-24T06:08:20.292Z,99.90
2023-03-24T06:10:46.907Z,99.90
2023-03-24T06:13:15.426Z,99.90
2023-03-24T06:15:41.999Z,99.90
2023-03-24T06:18:08.663Z,99.90
2023-03-24T06:20:35.266Z,99.90
2023-03-24T06:23:01.875Z,99.90
2023-03-24T06:25:28.436Z,99.90
2023-03-24T06:27:55.030Z,99.90
2023-03-24T06:30:21.646Z,99.90
2023-03-24T06:32:48.359Z,99.90
2023-03-24T06:35:14.956Z,99.90
2023-03-24T06:37:41.564Z,99.90
2023-03-24T06:40:08.299Z,99.90
2023-03-24T06:42:34.844Z,99.90
2023-03-24T06:45:01.470Z,99.90
2023-03-24T06:47:28.071Z,99.90
2023-03-24T06:49:54.685Z,99.90
2023-03-24T06:52:21.239Z,99.90
2023-03-24T06:54:47.781Z,99.90
2023-03-24T06:57:14.496Z,99.90
2023-03-24T06:59:41.127Z,99.90
2023-03-24T07:02:07.842Z,99.90
2023-03-24T07:04:34.465Z,99.90
2023-03-24T07:07:25.876Z,99.90
2023-03-24T07:09:47.694Z,99.90
2023-03-24T07:12:14.916Z,99.90
2023-03-24T07:14:41.554Z,99.90
2023-03-24T07:17:08.163Z,99.90
2023-03-24T07:19:34.717Z,99.90
2023-03-24T07:22:01.314Z,99.90
2023-03-24T07:24:30.563Z,99.90
2023-03-24T07:26:58.205Z,99.90
2023-03-24T07:29:24.779Z,99.90
2023-03-24T07:31:51.431Z,99.90
2023-03-24T07:34:18.084Z,99.90
2023-03-24T07:36:44.699Z,99.90
2023-03-24T07:39:11.262Z,99.90
2023-03-24T07:41:37.825Z,99.90
2023-03-24T07:44:04.369Z,99.90
2023-03-24T07:46:30.983Z,99.90
2023-03-24T07:49:03.269Z,99.90
2023-03-24T07:51:37.888Z,99.90
2023-03-24T07:54:06.341Z,99.90
2023-03-24T07:56:32.951Z,99.90
2023-03-24T07:58:59.574Z,99.90
2023-03-24T08:01:26.278Z,99.90
2023-03-24T08:03:53.073Z,99.90
2023-03-24T08:06:19.761Z,99.90
2023-03-24T08:08:46.370Z,99.90
2023-03-24T08:11:12.927Z,99.90
2023-03-24T08:13:39.465Z,99.90
2023-03-24T08:16:06.020Z,99.90
2023-03-24T08:18:32.584Z,99.90
2023-03-24T08:20:59.180Z,99.90
2023-03-24T08:23:25.775Z,99.60
2023-03-24T08:25:52.314Z,99.60
2023-03-24T08:28:18.890Z,99.30
2023-03-24T08:30:45.592Z,99.50
2023-03-24T08:33:12.674Z,99.00
2023-03-24T08:35:39.413Z,99.20
2023-03-24T08:38:07.167Z,99.30
2023-03-24T08:40:33.853Z,98.40
2023-03-24T08:43:00.441Z,97.80
2023-03-24T08:45:28.091Z,98.20
2023-03-24T08:47:54.774Z,97.80
2023-03-24T08:50:21.366Z,97.70
2023-03-24T08:52:47.937Z,97.80
2023-03-24T08:55:14.526Z,97.50
2023-03-24T08:57:41.121Z,97.60
2023-03-24T09:00:07.670Z,97.50
2023-03-24T09:02:34.296Z,97.00
2023-03-24T09:05:01.319Z,96.70
2023-03-24T09:07:27.958Z,96.90
2023-03-24T09:09:54.545Z,96.00
2023-03-24T09:12:21.101Z,96.50
2023-03-24T09:14:47.671Z,96.00
2023-03-24T09:17:14.243Z,95.80
2023-03-24T09:19:40.771Z,95.40
2023-03-24T09:22:07.329Z,94.80
2023-03-24T09:24:33.889Z,94.60
2023-03-24T09:27:00.569Z,94.20
2023-03-24T09:29:27.133Z,94.50
2023-03-24T09:31:53.730Z,93.90
2023-03-24T09:34:20.290Z,93.80
2023-03-24T09:36:46.865Z,93.00
2023-03-24T09:39:13.407Z,92.90
2023-03-24T09:41:40.064Z,92.80
2023-03-24T09:44:06.614Z,92.70
2023-03-24T09:46:33.174Z,92.90
2023-03-24T09:48:59.787Z,93.30
2023-03-24T09:51:26.400Z,92.70
2023-03-24T09:53:52.996Z,94.00
2023-03-24T09:56:19.562Z,93.40
2023-03-24T09:58:47.176Z,93.80
2023-03-24T10:01:13.784Z,93.00
2023-03-24T10:03:40.488Z,93.50
2023-03-24T10:06:07.041Z,93.60
2023-03-24T10:08:33.613Z,93.30
2023-03-24T10:11:00.190Z,93.10
2023-03-24T10:13:26.749Z,94.00
2023-03-24T10:15:53.672Z,93.80
2023-03-24T10:18:20.494Z,93.20
2023-03-24T10:20:47.071Z,92.70
2023-03-24T10:23:13.649Z,93.10
2023-03-24T10:25:40.187Z,94.00
2023-03-24T10:28:06.776Z,93.30
2023-03-24T10:30:33.386Z,92.60
2023-03-24T10:33:00.005Z,93.30
2023-03-24T10:35:26.616Z,93.10
2023-03-24T10:37:53.180Z,92.60
2023-03-24T10:40:19.733Z,92.50
2023-03-24T10:42:46.303Z,91.80
2023-03-24T10:45:12.886Z,91.30
2023-03-24T10:47:39.535Z,92.80
2023-03-24T10:50:14.253Z,92.80
2023-03-24T10:52:42.186Z,91.80
2023-03-24T10:55:08.815Z,91.60
2023-03-24T10:57:35.378Z,91.30
2023-03-24T11:00:01.980Z,92.00
2023-03-24T11:02:28.680Z,91.40
2023-03-24T11:04:55.442Z,91.40
2023-03-24T11:07:22.029Z,91.20
2023-03-24T11:12:39.701Z,90.00
2023-03-24T11:15:19.675Z,90.50
2023-03-24T11:17:48.264Z,91.40
2023-03-24T11:20:14.926Z,91.40
2023-03-24T11:22:41.525Z,91.20
2023-03-24T11:25:08.084Z,91.40
2023-03-24T11:27:34.600Z,91.40
2023-03-24T11:30:01.167Z,91.10
2023-03-24T11:32:27.748Z,91.70
2023-03-24T11:34:54.349Z,90.70
2023-03-24T11:37:20.892Z,90.90
2023-03-24T11:39:47.449Z,90.50
2023-03-24T11:42:14.027Z,90.70
2023-03-24T11:44:40.872Z,90.00
2023-03-24T11:47:07.647Z,90.50
2023-03-24T11:49:35.226Z,90.90
2023-03-24T11:52:02.293Z,91.40
2023-03-24T11:54:30.105Z,90.50
2023-03-24T11:56:58.733Z,90.00
2023-03-24T11:59:25.325Z,90.10
2023-03-24T12:01:54.223Z,89.90
2023-03-24T12:04:20.809Z,90.30
2023-03-24T12:06:47.422Z,89.40
2023-03-24T12:09:14.420Z,90.70
2023-03-24T12:11:41.055Z,89.90
2023-03-24T12:14:07.619Z,90.70
2023-03-24T12:16:34.287Z,90.30
2023-03-24T12:19:00.856Z,89.80
2023-03-24T12:21:27.555Z,90.00
2023-03-24T12:23:54.132Z,89.40
2023-03-24T12:26:20.731Z,89.40
2023-03-24T12:28:47.289Z,90.20
2023-03-24T12:31:13.869Z,90.30
2023-03-24T12:33:40.457Z,89.80
2023-03-24T12:36:07.159Z,90.70
2023-03-24T12:38:33.737Z,90.70
2023-03-24T12:41:00.301Z,90.10
2023-03-24T12:43:26.882Z,88.90
2023-03-24T12:45:53.503Z,88.80
2023-03-24T12:48:20.137Z,87.50
2023-03-24T12:50:46.740Z,88.40
2023-03-24T12:53:14.305Z,88.10
2023-03-24T12:55:41.025Z,88.20
2023-03-24T12:58:07.630Z,88.80
2023-03-24T13:00:34.199Z,89.50
2023-03-24T13:03:00.949Z,89.30
2023-03-24T13:05:27.660Z,89.20
2023-03-24T13:07:54.352Z,88.30
2023-03-24T13:10:20.923Z,88.10
2023-03-24T13:12:47.533Z,87.40
2023-03-24T13:15:14.170Z,87.30
2023-03-24T13:17:40.749Z,88.90
2023-03-24T13:20:07.337Z,88.20
2023-03-24T13:22:33.945Z,86.20
2023-03-24T13:25:00.518Z,86.20
2023-03-24T13:27:27.074Z,86.90
2023-03-24T13:29:53.840Z,88.30
2023-03-24T13:32:20.386Z,87.30
2023-03-24T13:34:46.948Z,85.40
2023-03-24T13:37:13.570Z,85.20
2023-03-24T13:39:40.230Z,87.40
2023-03-24T13:42:06.818Z,88.20
2023-03-24T13:44:33.390Z,89.00
2023-03-24T13:46:59.965Z,87.40
2023-03-24T13:49:26.623Z,87.00
2023-03-24T13:51:53.170Z,87.90
2023-03-24T13:54:19.711Z,87.60
2023-03-24T13:56:46.357Z,88.50
2023-03-24T13:59:12.934Z,86.40
2023-03-24T14:01:39.579Z,85.70
2023-03-24T14:04:06.213Z,85.20
2023-03-24T14:06:32.769Z,85.40
2023-03-24T14:08:59.329Z,84.50
2023-03-24T14:11:25.883Z,86.10
2023-03-24T14:13:52.442Z,85.80
2023-03-24T14:16:19.061Z,85.40
2023-03-24T14:18:45.665Z,83.90
2023-03-24T14:21:12.286Z,85.00
2023-03-24T14:23:38.827Z,84.60
2023-03-24T14:26:05.398Z,85.00
2023-03-24T14:28:31.984Z,84.70
2023-03-24T14:30:58.681Z,83.70
2023-03-24T14:33:25.308Z,82.90
2023-03-24T14:35:52.007Z,82.40
2023-03-24T14:38:18.621Z,85.10
2023-03-24T14:40:45.166Z,85.00
2023-03-24T14:43:11.724Z,84.60
2023-03-24T14:45:38.303Z,84.90
2023-03-24T14:48:04.877Z,82.80
2023-03-24T14:50:31.452Z,82.50
2023-03-24T14:52:58.046Z,83.30
2023-03-24T14:55:24.629Z,83.00
2023-03-24T14:57:51.251Z,83.20
2023-03-24T15:00:17.823Z,82.40
2023-03-24T15:02:44.406Z,84.00
2023-03-24T15:05:10.989Z,83.20
2023-03-24T15:07:37.678Z,83.50
2023-03-24T15:10:04.345Z,83.10
2023-03-24T15:12:30.994Z,81.90
2023-03-24T15:15:00.822Z,83.30
2023-03-24T15:17:27.562Z,82.30
2023-03-24T15:19:54.104Z,81.50
2023-03-24T15:22:20.670Z,83.40
2023-03-24T15:24:47.232Z,83.30
2023-03-24T15:27:13.815Z,83.10
2023-03-24T15:29:40.369Z,81.80
2023-03-24T15:32:07.002Z,81.10
2023-03-24T15:34:33.579Z,81.30
2023-03-24T15:37:00.130Z,82.50
2023-03-24T15:39:26.706Z,80.60
2023-03-24T15:41:53.296Z,80.80
2023-03-24T15:44:19.865Z,80.60
2023-03-24T15:46:46.524Z,81.50
2023-03-24T15:49:13.135Z,80.00
2023-03-24T15:51:39.716Z,81.00
2023-03-24T15:54:06.277Z,80.60
2023-03-24T15:56:32.886Z,83.00
2023-03-24T15:58:59.712Z,81.60
2023-03-24T16:01:26.293Z,80.20
2023-03-24T16:03:52.876Z,81.00
2023-03-24T16:06:19.564Z,81.70
2023-03-24T16:08:46.121Z,81.00
2023-03-24T16:11:12.689Z,85.10
2023-03-24T16:13:39.397Z,81.00
2023-03-24T16:16:05.949Z,81.60
2023-03-24T16:18:32.521Z,81.70
2023-03-24T16:20:59.106Z,81.30
2023-03-24T16:23:26.834Z,82.00
2023-03-24T16:25:53.482Z,81.80
2023-03-24T16:28:20.044Z,81.60
2023-03-24T16:30:46.790Z,81.90
2023-03-24T16:33:13.512Z,81.20
2023-03-24T16:35:40.127Z,82.00
2023-03-24T16:38:06.706Z,84.10
2023-03-24T16:40:33.286Z,82.90
2023-03-24T16:42:59.862Z,82.50
2023-03-24T16:45:26.464Z,81.10
2023-03-24T16:47:53.112Z,81.00
2023-03-24T16:50:20.704Z,80.50
2023-03-24T16:52:47.251Z,81.50
2023-03-24T16:55:13.826Z,81.40
2023-03-24T16:57:40.379Z,82.00
2023-03-24T17:00:06.957Z,84.20
2023-03-24T17:02:33.580Z,83.60
2023-03-24T17:05:00.211Z,84.20
2023-03-24T17:07:26.739Z,84.80
2023-03-24T17:09:53.285Z,84.00
2023-03-24T17:12:19.876Z,86.10
2023-03-24T17:14:46.436Z,83.80
2023-03-24T17:17:12.980Z,85.80
2023-03-24T17:19:39.520Z,84.10
2023-03-24T17:22:06.087Z,85.20
2023-03-24T17:24:32.685Z,85.20
2023-03-24T17:26:59.317Z,88.60
2023-03-24T17:29:25.898Z,89.10
2023-03-24T17:31:52.537Z,90.00
2023-03-24T17:34:21.985Z,90.10
2023-03-24T17:36:49.074Z,89.90
2023-03-24T17:39:15.671Z,89.70
2023-03-24T17:41:42.228Z,89.90
2023-03-24T17:44:08.820Z,90.00
2023-03-24T17:46:35.473Z,90.00
2023-03-24T17:49:02.101Z,90.10
2023-03-24T17:51:28.644Z,90.10
2023-03-24T17:53:55.221Z,90.20
2023-03-24T17:56:21.820Z,90.20
2023-03-24T17:58:48.448Z,90.40
2023-03-24T18:01:15.052Z,90.50
2023-03-24T18:03:41.674Z,90.60
2023-03-24T18:06:08.311Z,90.60
2023-03-24T18:08:34.937Z,90.70
2023-03-24T18:11:01.655Z,90.70
2023-03-24T18:13:28.240Z,90.50
2023-03-24T18:15:54.805Z,91.00
2023-03-24T18:18:21.413Z,91.10
2023-03-24T18:20:48.190Z,91.10
2023-03-24T18:23:14.943Z,91.20
2023-03-24T18:25:41.541Z,91.00
2023-03-24T18:28:08.103Z,90.70
2023-03-24T18:30:34.729Z,91.00
2023-03-24T18:33:01.346Z,91.30
2023-03-24T18:35:28.118Z,91.10
2023-03-24T18:37:54.750Z,92.00
2023-03-24T18:40:21.393Z,91.50
2023-03-24T18:42:47.966Z,91.80
2023-03-24T18:45:14.993Z,92.00
2023-03-24T18:47:41.697Z,91.80
2023-03-24T18:50:08.335Z,91.80
2023-03-24T18:52:34.929Z,92.10
2023-03-24T18:55:01.513Z,92.00
2023-03-24T18:57:28.093Z,92.00
2023-03-24T18:59:54.655Z,91.80
2023-03-24T19:02:21.248Z,91.90
2023-03-24T19:04:47.848Z,91.70
2023-03-24T19:07:14.533Z,91.60
2023-03-24T19:09:41.434Z,91.80
2023-03-24T19:12:08.012Z,92.10
2023-03-24T19:14:34.573Z,92.80
2023-03-24T19:17:01.116Z,93.00
2023-03-24T19:19:27.707Z,93.10
2023-03-24T19:21:54.262Z,92.60
2023-03-24T19:24:20.825Z,92.50
2023-03-24T19:26:47.409Z,92.60
2023-03-24T19:29:13.994Z,92.70
2023-03-24T19:31:40.594Z,92.50
2023-03-24T19:34:07.169Z,92.40
2023-03-24T19:36:33.748Z,92.90
2023-03-24T19:39:00.295Z,93.20
2023-03-24T19:41:26.890Z,93.10
2023-03-24T19:43:53.455Z,93.20
2023-03-24T19:46:20.121Z,93.10
2023-03-24T19:48:46.935Z,93.20
2023-03-24T19:51:13.498Z,93.40
2023-03-24T19:53:40.128Z,93.70
2023-03-24T19:56:06.729Z,93.80
2023-03-24T19:58:33.267Z,93.70
2023-03-24T20:00:59.829Z,93.50
2023-03-24T20:03:26.507Z,93.70
2023-03-24T20:05:53.322Z,93.70
2023-03-24T20:08:19.934Z,93.60
2023-03-24T20:10:46.623Z,93.80
2023-03-24T20:13:13.232Z,93.80
2023-03-24T20:15:39.834Z,94.00
2023-03-24T20:18:06.427Z,94.00
2023-03-24T20:20:33.034Z,94.40
2023-03-24T20:22:59.571Z,94.20
2023-03-24T20:25:26.173Z,94.10
2023-03-24T20:27:52.774Z,94.00
2023-03-24T20:30:19.341Z,95.00
2023-03-24T20:32:45.919Z,95.70
2023-03-24T20:35:12.545Z,95.50
2023-03-24T20:37:39.170Z,95.30
2023-03-24T20:40:05.801Z,95.30
2023-03-24T20:42:32.375Z,95.50
2023-03-24T20:44:58.923Z,95.00
2023-03-24T20:47:25.577Z,95.00
2023-03-24T20:49:52.182Z,95.20
2023-03-24T20:52:18.739Z,95.00
2023-03-24T20:54:45.287Z,95.20
2023-03-24T20:57:11.896Z,95.50
2023-03-24T20:59:38.498Z,95.50
2023-03-24T21:02:05.144Z,95.30
2023-03-24T21:04:31.752Z,95.20
2023-03-24T21:06:58.342Z,95.50
2023-03-24T21:09:24.893Z,95.90
2023-03-24T21:11:51.460Z,96.10
2023-03-24T21:14:18.007Z,96.20
2023-03-24T21:16:44.657Z,96.70
2023-03-24T21:19:11.313Z,97.30
2023-03-24T21:21:37.878Z,96.90
2023-03-24T21:24:04.455Z,96.50
2023-03-24T21:26:31.017Z,97.10
2023-03-24T21:28:57.587Z,97.50
2023-03-24T21:31:24.164Z,97.20
2023-03-24T21:33:50.820Z,97.70
2023-03-24T21:36:17.445Z,98.10
2023-03-24T21:38:44.101Z,99.40
2023-03-24T21:41:10.653Z,99.90
2023-03-24T21:43:37.222Z,99.90
2023-03-24T21:46:03.874Z,99.90
2023-03-24T21:48:30.546Z,99.90
2023-03-24T21:50:57.301Z,99.90
2023-03-24T21:53:24.038Z,99.90
2023-03-24T21:55:50.983Z,99.90
2023-03-24T21:58:18.057Z,99.90
2023-03-24T22:00:44.615Z,99.90
2023-03-24T22:03:11.203Z,99.90
2023-03-24T22:05:37.822Z,99.90
2023-03-24T22:08:04.379Z,99.90
2023-03-24T22:10:30.940Z,99.90
2023-03-24T22:12:57.500Z,99.90
2023-03-24T22:15:24.054Z,99.90
2023-03-24T22:17:50.667Z,99.90
2023-03-24T22:20:17.306Z,99.90
2023-03-24T22:22:43.877Z,99.90
2023-03-24T22:25:10.441Z,99.90
2023-03-24T22:27:36.993Z,99.90
2023-03-24T22:30:03.577Z,99.90
2023-03-24T22:32:30.193Z,99.90
2023-03-24T22:34:56.823Z,99.90
2023-03-24T22:37:23.447Z,99.90
2023-03-24T22:39:50.028Z,99.90
2023-03-24T22:42:16.576Z,99.90
2023-03-24T22:44:43.137Z,99.90
2023-03-24T22:47:09.735Z,99.90
2023-03-24T22:49:36.278Z,99.90
2023-03-24T22:52:02.836Z,99.90
2023-03-24T22:54:29.411Z,99.90
2023-03-24T22:56:56.026Z,99.90
2023-03-24T22:59:22.658Z,99.90
2023-03-24T23:01:56.111Z,99.90
2023-03-24T23:04:32.724Z,99.90
2023-03-24T23:06:59.280Z,99.90
2023-03-24T23:09:25.867Z,99.90
2023-03-24T23:11:52.440Z,99.90
2023-03-24T23:14:18.991Z,99.90
2023-03-24T23:16:45.676Z,99.90
2023-03-24T23:19:12.311Z,99.90
2023-03-24T23:21:38.865Z,99.90
2023-03-24T23:24:05.448Z,99.90
2023-03-24T23:26:32.023Z,99.90
2023-03-24T23:28:58.593Z,99.90
2023-03-24T23:31:25.172Z,99.90
2023-03-24T23:33:51.827Z,99.90
2023-03-24T23:36:19.372Z,99.90
2023-03-24T23:38:46.071Z,99.90
2023-03-24T23:41:12.645Z,99.90
2023-03-24T23:43:39.324Z,99.90
2023-03-24T23:46:05.930Z,99.90
2023-03-24T23:48:32.509Z,99.90
2023-03-24T23:50:59.086Z,99.90
2023-03-24T23:53:25.657Z,99.90
2023-03-24T23:55:52.336Z,99.90
2023-03-24T23:58:18.962Z,99.90
